Time;durP1;ratioP1;P1;durP2;ratioP2;P2;SDS_P1;SDS_P2;PMS_P1;PMS_P2;Temp;Humidity;BMP_temperature;BMP_pressure;BME280_temperature;BME280_humidity;BME280_pressure;Samples;Min_cycle;Max_cycle;Signal;HPM_P1;HPM_P2
2023/06/09 00:00:26;;;;;;;9.97;8.13;;;;;;;;;;4991858;28;20510;-47
2023/06/09 00:02:52;;;;;;;9.47;8.67;;;;;;;;;;4991916;28;20494;-47
2023/06/09 00:05:18;;;;;;;8.87;8.17;;;;;;;;;;4992043;28;20411;-48
2023/06/09 00:07:47;;;;;;;10.37;8.10;;;;;;;;;;4992597;28;20847;-48
2023/06/09 00:10:13;;;;;;;10.27;9.20;;;;;;;;;;4994999;28;20440;-47
2023/06/09 00:12:40;;;;;;;10.03;8.87;;;;;;;;;;4995788;28;20509;-47
2023/06/09 00:15:09;;;;;;;9.63;8.73;;;;;;;;;;4995449;28;20432;-48
2023/06/09 00:17:39;;;;;;;9.03;8.20;;;;;;;;;;4995667;28;20448;-48
2023/06/09 00:20:08;;;;;;;9.43;8.50;;;;;;;;;;4987656;28;20556;-47
2023/06/09 00:22:34;;;;;;;8.87;8.10;;;;;;;;;;4995697;28;20418;-47
2023/06/09 00:25:00;;;;;;;9.67;8.87;;;;;;;;;;4995743;28;20788;-48
2023/06/09 00:27:26;;;;;;;9.20;8.37;;;;;;;;;;4995444;28;20421;-47
2023/06/09 00:29:53;;;;;;;10.00;9.10;;;;;;;;;;4995163;28;20420;-47
2023/06/09 00:32:20;;;;;;;9.13;8.43;;;;;;;;;;4995423;28;20414;-47
2023/06/09 00:34:46;;;;;;;11.13;9.10;;;;;;;;;;4995478;28;20952;-48
2023/06/09 00:37:12;;;;;;;10.07;9.10;;;;;;;;;;4994209;28;20442;-49
2023/06/09 00:39:38;;;;;;;10.93;9.93;;;;;;;;;;4994598;28;20561;-47
2023/06/09 00:42:05;;;;;;;9.23;8.47;;;;;;;;;;4987236;28;20410;-48
2023/06/09 00:44:31;;;;;;;9.50;8.60;;;;;;;;;;4995351;28;20437;-48
2023/06/09 00:46:57;;;;;;;11.53;8.30;;;;;;;;;;4995025;28;20452;-48
2023/06/09 00:49:23;;;;;;;9.77;8.97;;;;;;;;;;4995016;28;20505;-48
2023/06/09 00:51:49;;;;;;;9.23;8.43;;;;;;;;;;4995480;28;20814;-49
2023/06/09 00:54:16;;;;;;;10.07;9.17;;;;;;;;;;4995201;28;20413;-48
2023/06/09 00:56:42;;;;;;;16.00;10.93;;;;;;;;;;4995212;28;20444;-48
2023/06/09 00:59:08;;;;;;;10.90;10.00;;;;;;;;;;4994670;28;20893;-48
2023/06/09 01:01:37;;;;;;;10.23;9.33;;;;;;;;;;4994674;28;20766;-47
2023/06/09 01:04:03;;;;;;;11.43;10.23;;;;;;;;;;4993305;28;20393;-47
2023/06/09 01:06:45;;;;;;;9.80;8.83;;;;;;;;;;4994691;28;20416;-47
2023/06/09 01:09:11;;;;;;;10.67;9.57;;;;;;;;;;4991219;28;20895;-48
2023/06/09 01:11:48;;;;;;;11.70;10.50;;;;;;;;;;4994306;28;20416;-49
2023/06/09 01:14:21;;;;;;;19.90;11.07;;;;;;;;;;4988409;28;20532;-47
2023/06/09 01:16:53;;;;;;;15.80;11.60;;;;;;;;;;4994592;28;20434;-48
2023/06/09 01:19:33;;;;;;;12.20;11.03;;;;;;;;;;4993582;28;20986;-48
2023/06/09 01:22:03;;;;;;;11.63;10.53;;;;;;;;;;4994595;28;20817;-47
2023/06/09 01:24:32;;;;;;;13.93;12.40;;;;;;;;;;4994579;28;20405;-47
2023/06/09 01:27:01;;;;;;;13.30;11.33;;;;;;;;;;4994348;28;20889;-48
2023/06/09 01:29:27;;;;;;;13.20;11.90;;;;;;;;;;4989399;28;20452;-48
2023/06/09 01:31:53;;;;;;;12.80;11.57;;;;;;;;;;4994469;28;20410;-46
2023/06/09 01:34:20;;;;;;;14.90;11.97;;;;;;;;;;4994343;28;20451;-47
2023/06/09 01:36:46;;;;;;;13.73;12.33;;;;;;;;;;4994172;28;20437;-48
2023/06/09 01:39:12;;;;;;;13.90;12.00;;;;;;;;;;4992998;28;20472;-48
2023/06/09 01:41:38;;;;;;;13.33;12.03;;;;;;;;;;4994694;28;20420;-48
2023/06/09 01:44:04;;;;;;;11.90;10.67;;;;;;;;;;4994261;28;20754;-47
2023/06/09 01:46:30;;;;;;;13.83;11.43;;;;;;;;;;4994076;28;20444;-48
2023/06/09 01:49:11;;;;;;;12.27;10.30;;;;;;;;;;4993945;28;20396;-47
2023/06/09 01:51:45;;;;;;;13.40;12.00;;;;;;;;;;4994175;28;20416;-47
2023/06/09 01:54:12;;;;;;;17.73;11.67;;;;;;;;;;4990448;28;20416;-48
2023/06/09 01:56:42;;;;;;;13.57;12.40;;;;;;;;;;4993755;28;20443;-47
2023/06/09 01:59:11;;;;;;;13.60;12.27;;;;;;;;;;4986192;28;20456;-48
2023/06/09 02:01:39;;;;;;;13.53;12.20;;;;;;;;;;4993989;28;20758;-49
2023/06/09 02:04:05;;;;;;;13.23;11.30;;;;;;;;;;4993773;28;20904;-47
2023/06/09 02:06:33;;;;;;;13.10;11.70;;;;;;;;;;4993650;28;20930;-48
2023/06/09 02:08:59;;;;;;;13.27;11.53;;;;;;;;;;4993207;28;20406;-48
2023/06/09 02:11:25;;;;;;;13.20;11.80;;;;;;;;;;4992899;28;20449;-47
2023/06/09 02:13:54;;;;;;;13.80;12.00;;;;;;;;;;4993520;28;20449;-47
2023/06/09 02:16:21;;;;;;;15.50;12.43;;;;;;;;;;4993642;28;20436;-47
2023/06/09 02:18:48;;;;;;;14.30;11.80;;;;;;;;;;4993451;28;20468;-47
2023/06/09 02:21:14;;;;;;;13.60;12.30;;;;;;;;;;4993330;28;20452;-47
2023/06/09 02:23:40;;;;;;;14.30;12.90;;;;;;;;;;4993469;28;20413;-48
2023/06/09 02:26:06;;;;;;;12.43;11.13;;;;;;;;;;4993315;28;20428;-48
2023/06/09 02:28:33;;;;;;;13.40;12.00;;;;;;;;;;4993382;28;20418;-48
2023/06/09 02:30:59;;;;;;;16.33;13.97;;;;;;;;;;4992015;28;20460;-47
2023/06/09 02:33:25;;;;;;;15.60;13.40;;;;;;;;;;4992444;28;20429;-46
2023/06/09 02:35:51;;;;;;;14.87;13.07;;;;;;;;;;4993142;28;20406;-46
2023/06/09 02:38:17;;;;;;;14.60;13.17;;;;;;;;;;4993078;28;20427;-47
2023/06/09 02:40:43;;;;;;;15.20;12.03;;;;;;;;;;4992928;28;20412;-48
2023/06/09 02:43:09;;;;;;;14.33;12.90;;;;;;;;;;4993062;28;20395;-48
2023/06/09 02:45:36;;;;;;;15.13;13.47;;;;;;;;;;4993293;28;20463;-47
2023/06/09 02:48:02;;;;;;;14.40;12.80;;;;;;;;;;4993088;28;20385;-47
2023/06/09 02:50:28;;;;;;;14.60;12.67;;;;;;;;;;4995556;28;20651;-47
2023/06/09 02:52:53;;;;;;;15.83;13.60;;;;;;;;;;4994295;28;20452;-48
2023/06/09 02:55:20;;;;;;;13.77;12.47;;;;;;;;;;4992900;28;20437;-48
2023/06/09 02:57:46;;;;;;;16.83;13.40;;;;;;;;;;4992592;28;20463;-48
2023/06/09 03:00:12;;;;;;;14.27;12.87;;;;;;;;;;4992484;28;20441;-47
2023/06/09 03:02:40;;;;;;;13.77;12.37;;;;;;;;;;4991899;28;20410;-47
2023/06/09 03:05:07;;;;;;;15.77;13.50;;;;;;;;;;4992359;28;20781;-47
2023/06/09 03:07:33;;;;;;;14.30;12.57;;;;;;;;;;4992659;28;20963;-47
2023/06/09 03:09:59;;;;;;;16.57;13.07;;;;;;;;;;4992806;28;20390;-47
2023/06/09 03:12:25;;;;;;;13.77;12.50;;;;;;;;;;4992605;28;20503;-48
2023/06/09 03:14:51;;;;;;;15.03;13.43;;;;;;;;;;4992556;28;20425;-47
2023/06/09 03:17:17;;;;;;;16.60;13.50;;;;;;;;;;4992507;28;21003;-47
2023/06/09 03:19:43;;;;;;;17.13;12.40;;;;;;;;;;4991229;28;20444;-48
2023/06/09 03:22:10;;;;;;;14.67;13.07;;;;;;;;;;4992620;28;20752;-48
2023/06/09 03:24:36;;;;;;;16.17;12.70;;;;;;;;;;4992485;28;20389;-47
2023/06/09 03:27:02;;;;;;;21.23;11.97;;;;;;;;;;4992248;28;20438;-48
2023/06/09 03:29:28;;;;;;;14.63;13.20;;;;;;;;;;4992173;28;20608;-48
2023/06/09 03:31:55;;;;;;;14.53;13.10;;;;;;;;;;4992369;28;20481;-47
2023/06/09 03:34:21;;;;;;;17.03;13.30;;;;;;;;;;4992340;28;20401;-47
2023/06/09 03:36:47;;;;;;;13.43;12.13;;;;;;;;;;4988855;28;20426;-47
2023/06/09 03:39:13;;;;;;;14.70;13.17;;;;;;;;;;4997030;28;20462;-48
2023/06/09 03:41:39;;;;;;;13.20;11.90;;;;;;;;;;4991192;28;20740;-47
2023/06/09 03:44:05;;;;;;;15.37;12.40;;;;;;;;;;4992380;28;20417;-47
2023/06/09 03:46:31;;;;;;;13.97;12.53;;;;;;;;;;4991640;28;20410;-47
2023/06/09 03:48:57;;;;;;;15.40;12.67;;;;;;;;;;4992053;28;20411;-47
2023/06/09 03:51:23;;;;;;;13.13;11.50;;;;;;;;;;4992039;28;20379;-46
2023/06/09 03:53:49;;;;;;;13.50;12.10;;;;;;;;;;4991910;28;20416;-47
2023/06/09 03:56:15;;;;;;;14.60;13.10;;;;;;;;;;4992087;28;20760;-47
2023/06/09 03:58:41;;;;;;;13.10;11.70;;;;;;;;;;4991998;28;20439;-47
2023/06/09 04:01:10;;;;;;;12.30;11.20;;;;;;;;;;4992060;28;20985;-47
2023/06/09 04:03:39;;;;;;;15.87;12.10;;;;;;;;;;4991234;28;20398;-48
2023/06/09 04:06:06;;;;;;;17.13;13.57;;;;;;;;;;4983312;28;20994;-47
2023/06/09 04:08:32;;;;;;;14.83;11.80;;;;;;;;;;4991860;28;20387;-48
2023/06/09 04:10:58;;;;;;;15.17;13.63;;;;;;;;;;4991861;28;20397;-47
2023/06/09 04:13:24;;;;;;;15.40;12.80;;;;;;;;;;4991963;28;20398;-48
2023/06/09 04:15:51;;;;;;;17.40;12.50;;;;;;;;;;4991886;28;20443;-47
2023/06/09 04:18:17;;;;;;;16.63;13.57;;;;;;;;;;4991858;28;20458;-47
2023/06/09 04:20:43;;;;;;;14.73;13.20;;;;;;;;;;4991666;28;20423;-47
2023/06/09 04:23:09;;;;;;;13.23;12.03;;;;;;;;;;4991793;28;20398;-48
2023/06/09 04:25:35;;;;;;;15.90;14.20;;;;;;;;;;4991731;28;20468;-46
2023/06/09 04:28:03;;;;;;;15.80;14.30;;;;;;;;;;4991789;28;20454;-47
2023/06/09 04:30:30;;;;;;;15.97;14.37;;;;;;;;;;4991558;28;20418;-47
2023/06/09 04:33:04;;;;;;;17.73;15.93;;;;;;;;;;4991168;28;20478;-46
2023/06/09 04:35:31;;;;;;;17.23;15.43;;;;;;;;;;4990607;28;20405;-47
2023/06/09 04:38:00;;;;;;;16.77;14.97;;;;;;;;;;4991932;28;20401;-47
2023/06/09 04:40:27;;;;;;;18.27;16.00;;;;;;;;;;4991598;28;20394;-49
2023/06/09 04:42:55;;;;;;;15.23;13.57;;;;;;;;;;4991651;28;20419;-48
2023/06/09 04:45:25;;;;;;;15.77;14.20;;;;;;;;;;4991810;28;20402;-47
2023/06/09 04:47:51;;;;;;;16.37;14.67;;;;;;;;;;4991464;28;20828;-47
2023/06/09 04:50:17;;;;;;;16.50;14.80;;;;;;;;;;4990179;28;20394;-47
2023/06/09 04:52:44;;;;;;;16.80;15.10;;;;;;;;;;4991530;28;20823;-48
2023/06/09 04:55:12;;;;;;;17.83;16.00;;;;;;;;;;4993849;28;20454;-49
2023/06/09 04:57:38;;;;;;;16.63;15.07;;;;;;;;;;4994746;28;20439;-47
2023/06/09 05:00:07;;;;;;;18.77;16.07;;;;;;;;;;4987241;28;20450;-49
2023/06/09 05:02:33;;;;;;;23.93;15.10;;;;;;;;;;5053613;22;20459;-48
2023/06/09 05:04:59;;;;;;;17.27;15.57;;;;;;;;;;5030566;28;20396;-48
2023/06/09 05:07:26;;;;;;;16.07;14.37;;;;;;;;;;5028400;28;20415;-48
2023/06/09 05:09:52;;;;;;;19.13;16.10;;;;;;;;;;5032416;28;20377;-48
2023/06/09 05:12:18;;;;;;;16.80;15.20;;;;;;;;;;5030995;28;20448;-48
2023/06/09 05:14:44;;;;;;;18.00;15.90;;;;;;;;;;5029320;28;20386;-49
2023/06/09 05:17:10;;;;;;;17.93;15.30;;;;;;;;;;5027707;28;20910;-48
2023/06/09 05:19:36;;;;;;;17.00;15.13;;;;;;;;;;5026091;28;20510;-48
2023/06/09 05:22:02;;;;;;;16.20;14.50;;;;;;;;;;5033752;28;20468;-49
2023/06/09 05:24:28;;;;;;;15.60;13.17;;;;;;;;;;5032455;28;20388;-48
2023/06/09 05:26:54;;;;;;;15.30;13.70;;;;;;;;;;5032340;28;20415;-49
2023/06/09 05:29:20;;;;;;;14.90;13.40;;;;;;;;;;5029103;28;20423;-48
2023/06/09 05:31:46;;;;;;;14.90;12.43;;;;;;;;;;5033630;28;20471;-49
2023/06/09 05:34:12;;;;;;;15.47;12.50;;;;;;;;;;5025049;28;20943;-49
2023/06/09 05:36:38;;;;;;;14.40;12.53;;;;;;;;;;5033633;28;20939;-48
2023/06/09 05:39:04;;;;;;;13.80;12.40;;;;;;;;;;5032580;28;20475;-49
2023/06/09 05:41:30;;;;;;;15.20;12.83;;;;;;;;;;5028857;28;20436;-49
2023/06/09 05:43:57;;;;;;;12.23;11.23;;;;;;;;;;5033371;28;20422;-49
2023/06/09 05:46:23;;;;;;;14.43;13.10;;;;;;;;;;5025518;28;20409;-48
2023/06/09 05:48:50;;;;;;;12.13;10.93;;;;;;;;;;5033343;28;20423;-49
2023/06/09 05:51:17;;;;;;;15.17;12.80;;;;;;;;;;5030177;28;20428;-49
2023/06/09 05:53:43;;;;;;;13.00;11.80;;;;;;;;;;5027455;28;20922;-49
2023/06/09 05:56:09;;;;;;;12.40;10.67;;;;;;;;;;5030497;28;20431;-48
2023/06/09 05:58:35;;;;;;;13.10;11.83;;;;;;;;;;5033407;28;20495;-49
2023/06/09 06:01:03;;;;;;;13.27;11.97;;;;;;;;;;5032228;28;20441;-48
2023/06/09 06:03:29;;;;;;;11.43;10.37;;;;;;;;;;5032161;28;20478;-49
2023/06/09 06:05:55;;;;;;;13.53;10.50;;;;;;;;;;5031440;28;20976;-48
2023/06/09 06:08:21;;;;;;;13.77;11.30;;;;;;;;;;5032357;28;20413;-49
2023/06/09 06:10:47;;;;;;;11.70;10.70;;;;;;;;;;5037460;28;20474;-49
2023/06/09 06:13:13;;;;;;;12.53;11.27;;;;;;;;;;5032283;28;20460;-49
2023/06/09 06:15:39;;;;;;;13.33;12.00;;;;;;;;;;5026645;28;20455;-49
2023/06/09 06:18:05;;;;;;;12.93;11.53;;;;;;;;;;5017266;28;20426;-49
2023/06/09 06:20:31;;;;;;;12.50;11.27;;;;;;;;;;5032107;28;20448;-49
2023/06/09 06:22:58;;;;;;;14.30;11.87;;;;;;;;;;5029947;28;20437;-48
2023/06/09 06:25:25;;;;;;;12.40;10.30;;;;;;;;;;5030613;28;20413;-48
2023/06/09 06:27:51;;;;;;;12.23;11.10;;;;;;;;;;5030862;28;20477;-48
2023/06/09 06:30:17;;;;;;;11.50;10.40;;;;;;;;;;5026718;28;20418;-48
2023/06/09 06:32:52;;;;;;;11.73;10.60;;;;;;;;;;5025312;28;20442;-49
2023/06/09 06:35:22;;;;;;;14.27;10.17;;;;;;;;;;5031833;28;20929;-49
2023/06/09 06:37:48;;;;;;;12.70;11.17;;;;;;;;;;5031683;28;20799;-49
2023/06/09 06:40:14;;;;;;;12.40;11.23;;;;;;;;;;5028453;28;20461;-49
2023/06/09 06:42:40;;;;;;;11.07;10.07;;;;;;;;;;5026813;28;20503;-49
2023/06/09 06:45:06;;;;;;;11.43;10.33;;;;;;;;;;5029720;28;20960;-49
2023/06/09 06:47:32;;;;;;;12.43;10.07;;;;;;;;;;5028009;28;20414;-49
2023/06/09 06:49:58;;;;;;;11.20;10.00;;;;;;;;;;5031617;28;20796;-49
2023/06/09 06:52:25;;;;;;;10.70;9.70;;;;;;;;;;5030196;28;20807;-49
2023/06/09 06:54:51;;;;;;;11.20;10.20;;;;;;;;;;5028524;28;20440;-49
2023/06/09 06:57:17;;;;;;;12.53;10.30;;;;;;;;;;5026842;28;20785;-49
2023/06/09 06:59:43;;;;;;;10.80;9.70;;;;;;;;;;5025048;28;21160;-49
2023/06/09 07:02:09;;;;;;;10.57;9.67;;;;;;;;;;5031956;28;21020;-49
2023/06/09 07:04:35;;;;;;;11.27;9.57;;;;;;;;;;5031159;28;20437;-49
2023/06/09 07:07:01;;;;;;;12.40;9.83;;;;;;;;;;5031999;28;20436;-49
2023/06/09 07:09:27;;;;;;;10.33;9.43;;;;;;;;;;5031061;28;20462;-50
2023/06/09 07:11:53;;;;;;;11.03;10.10;;;;;;;;;;5026658;28;20438;-49
2023/06/09 07:14:19;;;;;;;11.67;10.47;;;;;;;;;;5025064;28;20424;-49
2023/06/09 07:16:45;;;;;;;11.63;10.60;;;;;;;;;;5031112;28;20505;-49
2023/06/09 07:19:11;;;;;;;9.73;8.83;;;;;;;;;;5030693;28;20468;-49
2023/06/09 07:21:37;;;;;;;10.23;9.13;;;;;;;;;;5028670;28;20443;-49
2023/06/09 07:24:04;;;;;;;9.50;8.80;;;;;;;;;;5031534;28;20486;-49
2023/06/09 07:26:30;;;;;;;10.00;9.10;;;;;;;;;;5020692;28;20440;-49
2023/06/09 07:28:56;;;;;;;9.50;8.47;;;;;;;;;;5024699;28;20418;-49
2023/06/09 07:31:22;;;;;;;10.00;9.20;;;;;;;;;;5029053;28;20436;-49
2023/06/09 07:33:48;;;;;;;11.10;10.00;;;;;;;;;;5029349;28;20417;-49
2023/06/09 07:36:14;;;;;;;9.13;8.43;;;;;;;;;;5023525;28;20467;-49
2023/06/09 07:38:44;;;;;;;10.67;9.67;;;;;;;;;;5030588;28;20468;-49
2023/06/09 07:41:10;;;;;;;9.23;8.30;;;;;;;;;;5028754;28;20437;-48
2023/06/09 07:43:36;;;;;;;10.53;8.70;;;;;;;;;;5028352;28;20430;-49
2023/06/09 07:46:02;;;;;;;9.83;9.00;;;;;;;;;;5026955;28;20421;-49
2023/06/09 07:48:28;;;;;;;9.77;8.77;;;;;;;;;;5026794;28;20424;-49
2023/06/09 07:50:54;;;;;;;10.30;8.97;;;;;;;;;;5034100;28;20997;-49
2023/06/09 07:53:21;;;;;;;10.20;9.40;;;;;;;;;;5031499;28;20438;-49
2023/06/09 07:55:47;;;;;;;9.63;8.80;;;;;;;;;;5031777;28;20470;-50
2023/06/09 07:58:13;;;;;;;10.63;9.63;;;;;;;;;;5028396;28;20916;-49
2023/06/09 08:00:39;;;;;;;11.47;9.30;;;;;;;;;;5026340;28;20430;-50
2023/06/09 08:03:05;;;;;;;12.00;8.70;;;;;;;;;;5025298;28;20871;-49
2023/06/09 08:05:31;;;;;;;8.77;8.07;;;;;;;;;;5026702;28;20475;-49
2023/06/09 08:07:58;;;;;;;8.50;7.90;;;;;;;;;;5031151;28;20791;-50
2023/06/09 08:10:25;;;;;;;10.00;9.10;;;;;;;;;;5030110;28;20398;-50
2023/06/09 08:12:51;;;;;;;14.53;8.07;;;;;;;;;;5029615;28;20402;-49
2023/06/09 08:15:17;;;;;;;8.97;8.27;;;;;;;;;;5031546;28;20465;-50
2023/06/09 08:17:43;;;;;;;9.37;8.47;;;;;;;;;;5024995;28;20414;-49
2023/06/09 08:20:09;;;;;;;8.93;8.03;;;;;;;;;;5023371;28;20461;-49
2023/06/09 08:22:35;;;;;;;9.20;8.40;;;;;;;;;;5031097;28;20426;-50
2023/06/09 08:25:01;;;;;;;8.63;7.83;;;;;;;;;;5028166;28;20402;-49
2023/06/09 08:27:27;;;;;;;10.67;8.00;;;;;;;;;;5028291;28;20473;-50
2023/06/09 08:29:53;;;;;;;9.37;7.70;;;;;;;;;;5032913;28;20410;-50
2023/06/09 08:32:19;;;;;;;8.17;7.37;;;;;;;;;;5028826;28;20436;-50
2023/06/09 08:34:45;;;;;;;7.67;6.97;;;;;;;;;;5027075;28;20929;-50
2023/06/09 08:37:12;;;;;;;8.17;7.00;;;;;;;;;;5033896;28;20437;-50
2023/06/09 08:39:38;;;;;;;7.00;6.30;;;;;;;;;;5033703;28;20477;-50
2023/06/09 08:42:07;;;;;;;8.10;7.30;;;;;;;;;;5030206;28;20445;-50
2023/06/09 08:44:42;;;;;;;6.93;6.43;;;;;;;;;;5029541;28;20461;-49
2023/06/09 08:47:08;;;;;;;8.07;6.90;;;;;;;;;;5026987;28;20926;-50
2023/06/09 08:49:35;;;;;;;7.47;6.77;;;;;;;;;;5034426;28;20418;-50
2023/06/09 08:52:03;;;;;;;8.83;8.10;;;;;;;;;;5034229;28;20505;-50
2023/06/09 08:54:29;;;;;;;10.93;7.07;;;;;;;;;;5034461;28;20902;-49
2023/06/09 08:56:55;;;;;;;6.73;6.13;;;;;;;;;;5029961;28;20441;-50
2023/06/09 08:59:22;;;;;;;7.73;6.67;;;;;;;;;;5028284;28;20489;-50
2023/06/09 09:01:50;;;;;;;7.87;6.83;;;;;;;;;;5026507;28;20455;-49
2023/06/09 09:04:17;;;;;;;6.77;6.27;;;;;;;;;;5034359;28;20423;-49
2023/06/09 09:06:43;;;;;;;6.50;5.90;;;;;;;;;;5030577;28;20431;-50
2023/06/09 09:09:09;;;;;;;6.60;6.03;;;;;;;;;;5032947;28;20495;-50
2023/06/09 09:11:35;;;;;;;6.03;5.53;;;;;;;;;;5030317;28;20957;-49
2023/06/09 09:14:11;;;;;;;5.67;5.23;;;;;;;;;;5034120;28;20458;-50
2023/06/09 09:16:37;;;;;;;6.37;5.97;;;;;;;;;;5026528;28;20418;-50
2023/06/09 09:19:03;;;;;;;5.50;5.10;;;;;;;;;;5033708;28;20453;-49
2023/06/09 09:21:30;;;;;;;6.30;5.80;;;;;;;;;;5032141;28;20442;-49
2023/06/09 09:24:04;;;;;;;5.97;5.37;;;;;;;;;;5024343;28;20948;-50
2023/06/09 09:26:30;;;;;;;4.90;4.50;;;;;;;;;;5029184;28;20810;-50
2023/06/09 09:28:57;;;;;;;5.13;4.63;;;;;;;;;;5032617;28;20412;-50
2023/06/09 09:31:38;;;;;;;5.20;4.67;;;;;;;;;;5033396;28;20442;-50
2023/06/09 09:34:04;;;;;;;6.40;5.07;;;;;;;;;;5025745;28;20418;-50
2023/06/09 09:36:33;;;;;;;6.50;5.40;;;;;;;;;;5033751;28;20424;-50
2023/06/09 09:39:05;;;;;;;5.50;4.57;;;;;;;;;;5028331;28;21033;-50
2023/06/09 09:41:31;;;;;;;5.53;5.13;;;;;;;;;;5026249;28;20438;-50
2023/06/09 09:43:57;;;;;;;4.53;4.23;;;;;;;;;;5033303;28;20475;-50
2023/06/09 09:46:23;;;;;;;5.30;4.80;;;;;;;;;;5033592;28;20187;-50
2023/06/09 09:48:49;;;;;;;6.03;4.50;;;;;;;;;;5030751;28;20415;-50
2023/06/09 09:51:19;;;;;;;5.13;4.67;;;;;;;;;;5032189;28;20436;-50
2023/06/09 09:53:50;;;;;;;6.90;5.00;;;;;;;;;;5030699;28;20775;-50
2023/06/09 09:56:19;;;;;;;4.37;4.07;;;;;;;;;;5027417;28;20410;-50
2023/06/09 09:58:48;;;;;;;4.80;4.37;;;;;;;;;;5025663;28;20493;-50
2023/06/09 10:01:14;;;;;;;5.17;4.77;;;;;;;;;;5032961;28;20580;-50
2023/06/09 10:03:41;;;;;;;4.20;3.90;;;;;;;;;;5030669;28;20417;-50
2023/06/09 10:06:10;;;;;;;4.90;4.50;;;;;;;;;;5029026;28;20434;-50
2023/06/09 10:08:39;;;;;;;5.00;4.60;;;;;;;;;;5027781;28;20414;-50
2023/06/09 10:11:05;;;;;;;4.63;4.13;;;;;;;;;;5031597;28;20472;-50
2023/06/09 10:13:31;;;;;;;5.80;4.60;;;;;;;;;;5033099;28;20402;-50
2023/06/09 10:15:57;;;;;;;4.77;4.33;;;;;;;;;;5033012;28;20410;-50
2023/06/09 10:18:24;;;;;;;4.50;4.13;;;;;;;;;;5032809;28;20418;-49
2023/06/09 10:20:51;;;;;;;5.10;4.80;;;;;;;;;;5028403;28;20421;-50
2023/06/09 10:23:18;;;;;;;4.97;4.57;;;;;;;;;;5027217;28;20430;-50
2023/06/09 10:25:47;;;;;;;4.60;4.30;;;;;;;;;;5032637;28;20411;-50
2023/06/09 10:28:16;;;;;;;4.70;4.30;;;;;;;;;;5032699;28;20414;-50
2023/06/09 10:30:42;;;;;;;5.10;4.70;;;;;;;;;;5029987;28;20427;-50
2023/06/09 10:33:15;;;;;;;5.37;4.97;;;;;;;;;;5032833;28;20406;-50
2023/06/09 10:35:43;;;;;;;6.93;4.97;;;;;;;;;;5029406;28;20418;-49
2023/06/09 10:38:21;;;;;;;4.43;4.10;;;;;;;;;;5026784;28;20411;-49
2023/06/09 10:40:49;;;;;;;4.80;4.40;;;;;;;;;;5025587;28;20479;-50
2023/06/09 10:43:23;;;;;;;4.80;4.30;;;;;;;;;;5031660;28;20457;-49
2023/06/09 10:45:51;;;;;;;4.53;4.23;;;;;;;;;;5030056;28;20417;-50
2023/06/09 10:48:35;;;;;;;5.43;4.70;;;;;;;;;;5028299;28;20449;-50
2023/06/09 10:51:20;;;;;;;4.67;4.27;;;;;;;;;;5026439;28;20840;-50
2023/06/09 10:54:04;;;;;;;4.40;4.00;;;;;;;;;;5024665;28;20418;-50
2023/06/09 10:56:33;;;;;;;5.80;4.20;;;;;;;;;;5032638;28;20497;-50
2023/06/09 10:58:59;;;;;;;4.30;3.90;;;;;;;;;;5029606;28;20470;-50
2023/06/09 11:01:25;;;;;;;6.03;4.57;;;;;;;;;;5029662;28;20491;-50
2023/06/09 11:03:51;;;;;;;4.17;3.87;;;;;;;;;;5030373;28;20183;-50
2023/06/09 11:06:17;;;;;;;4.20;3.90;;;;;;;;;;5026447;28;20406;-50
2023/06/09 11:09:01;;;;;;;5.27;4.43;;;;;;;;;;5024757;28;20423;-50
2023/06/09 11:11:45;;;;;;;4.37;3.93;;;;;;;;;;5030876;28;20689;-50
2023/06/09 11:14:31;;;;;;;6.97;4.80;;;;;;;;;;5024165;28;20477;-50
2023/06/09 11:17:15;;;;;;;4.63;4.33;;;;;;;;;;5031653;28;20492;-50
2023/06/09 11:19:41;;;;;;;4.40;4.10;;;;;;;;;;5031353;28;20467;-50
2023/06/09 11:22:09;;;;;;;4.90;4.50;;;;;;;;;;5024932;28;20461;-50
2023/06/09 11:24:47;;;;;;;4.97;4.67;;;;;;;;;;5052006;22;20918;-45
2023/06/09 11:27:19;;;;;;;5.73;5.33;;;;;;;;;;4981151;28;20513;-45
2023/06/09 11:30:04;;;;;;;5.27;4.70;;;;;;;;;;4999765;28;20408;-46
2023/06/09 11:32:48;;;;;;;6.57;5.10;;;;;;;;;;5000260;28;20408;-46
2023/06/09 11:35:39;;;;;;;5.50;5.00;;;;;;;;;;4993911;28;20777;-46
2023/06/09 11:38:08;;;;;;;5.90;5.30;;;;;;;;;;5003149;28;20414;-47
2023/06/09 11:40:39;;;;;;;5.97;5.43;;;;;;;;;;5000993;28;20463;-45
2023/06/09 11:43:08;;;;;;;5.77;5.33;;;;;;;;;;4999958;28;20431;-47
2023/06/09 11:45:35;;;;;;;6.77;6.07;;;;;;;;;;5000509;28;20451;-47
2023/06/09 11:48:03;;;;;;;9.23;5.60;;;;;;;;;;5002588;28;20459;-49
2023/06/09 11:50:45;;;;;;;5.90;5.50;;;;;;;;;;4997088;28;20459;-50
2023/06/09 11:53:18;;;;;;;6.60;6.07;;;;;;;;;;4993507;28;20420;-47
2023/06/09 11:55:45;;;;;;;6.30;5.80;;;;;;;;;;5006276;28;20506;-48
2023/06/09 11:58:13;;;;;;;6.27;5.77;;;;;;;;;;5000906;28;20776;-49
2023/06/09 12:00:39;;;;;;;6.53;6.10;;;;;;;;;;4997948;28;20428;-49
2023/06/09 12:03:06;;;;;;;5.33;4.83;;;;;;;;;;4992634;28;20418;-48
2023/06/09 12:05:32;;;;;;;6.73;5.50;;;;;;;;;;5004096;28;20777;-46
2023/06/09 12:08:00;;;;;;;6.00;5.50;;;;;;;;;;5006466;28;21153;-48
2023/06/09 12:10:27;;;;;;;5.93;5.30;;;;;;;;;;5003691;28;20435;-48
2023/06/09 12:12:57;;;;;;;5.63;5.23;;;;;;;;;;5008211;28;20419;-46
2023/06/09 12:15:24;;;;;;;6.03;5.63;;;;;;;;;;5004440;28;20524;-48
2023/06/09 12:17:51;;;;;;;5.57;5.20;;;;;;;;;;5000096;28;20415;-47
2023/06/09 12:20:26;;;;;;;5.30;4.90;;;;;;;;;;5007111;28;20801;-48
2023/06/09 12:23:14;;;;;;;6.70;5.67;;;;;;;;;;5004767;28;20411;-47
2023/06/09 12:25:40;;;;;;;6.50;5.77;;;;;;;;;;5003476;28;20415;-47
2023/06/09 12:28:21;;;;;;;5.40;5.00;;;;;;;;;;5005912;28;20768;-48
2023/06/09 12:30:54;;;;;;;6.10;5.60;;;;;;;;;;5004362;28;20915;-48
2023/06/09 12:33:21;;;;;;;6.00;5.47;;;;;;;;;;4997751;28;20439;-50
2023/06/09 12:35:48;;;;;;;6.30;5.70;;;;;;;;;;5003220;28;20423;-48
2023/06/09 12:38:14;;;;;;;6.57;5.97;;;;;;;;;;5008245;28;20422;-49
2023/06/09 12:40:44;;;;;;;5.57;5.17;;;;;;;;;;5001449;28;20436;-48
2023/06/09 12:43:11;;;;;;;7.30;6.17;;;;;;;;;;5005628;28;20199;-50
2023/06/09 12:45:37;;;;;;;6.20;5.77;;;;;;;;;;5000231;28;20926;-47
2023/06/09 12:48:06;;;;;;;10.60;5.77;;;;;;;;;;5006510;28;20410;-48
2023/06/09 12:50:33;;;;;;;6.73;6.23;;;;;;;;;;5005400;28;20411;-50
2023/06/09 12:52:59;;;;;;;9.87;6.27;;;;;;;;;;5005480;28;20408;-46
2023/06/09 12:55:24;;;;;;;6.17;5.73;;;;;;;;;;5005033;28;20478;-46
2023/06/09 12:57:50;;;;;;;5.43;5.03;;;;;;;;;;5005907;28;20419;-47
2023/06/09 13:00:17;;;;;;;6.40;4.97;;;;;;;;;;5001107;28;20459;-48
2023/06/09 13:02:43;;;;;;;6.37;5.40;;;;;;;;;;5005733;28;20845;-47
2023/06/09 13:05:09;;;;;;;6.83;5.30;;;;;;;;;;5005174;28;20930;-46
2023/06/09 13:07:35;;;;;;;6.30;5.00;;;;;;;;;;5003107;28;20426;-48
2023/06/09 13:10:01;;;;;;;5.17;4.63;;;;;;;;;;5004804;28;20439;-48
2023/06/09 13:12:27;;;;;;;5.60;5.10;;;;;;;;;;4997457;28;20423;-45
2023/06/09 13:14:53;;;;;;;6.30;5.70;;;;;;;;;;5002832;28;20446;-46
2023/06/09 13:17:19;;;;;;;5.33;4.93;;;;;;;;;;5008142;28;20410;-46
2023/06/09 13:19:45;;;;;;;6.17;5.30;;;;;;;;;;5004908;28;20596;-47
2023/06/09 13:22:11;;;;;;;6.03;5.33;;;;;;;;;;5003446;28;20513;-46
2023/06/09 13:24:37;;;;;;;9.20;5.50;;;;;;;;;;5001077;28;20212;-47
2023/06/09 13:27:03;;;;;;;5.77;5.07;;;;;;;;;;5003981;28;20168;-48
2023/06/09 13:29:29;;;;;;;6.20;5.60;;;;;;;;;;5002385;28;20419;-48
2023/06/09 13:31:55;;;;;;;7.63;5.87;;;;;;;;;;5004731;28;20420;-48
2023/06/09 13:34:21;;;;;;;6.80;5.57;;;;;;;;;;5006823;28;20448;-49
2023/06/09 13:36:47;;;;;;;7.10;6.10;;;;;;;;;;5006758;28;20423;-49
2023/06/09 13:39:13;;;;;;;6.30;5.80;;;;;;;;;;5001660;28;20475;-49
2023/06/09 13:41:39;;;;;;;6.30;5.80;;;;;;;;;;4997842;28;20177;-46
2023/06/09 13:44:07;;;;;;;7.20;6.60;;;;;;;;;;5005047;28;20879;-49
2023/06/09 13:46:33;;;;;;;12.00;5.77;;;;;;;;;;5004661;28;20404;-48
2023/06/09 13:49:02;;;;;;;7.20;6.27;;;;;;;;;;5004917;28;20419;-48
2023/06/09 13:51:28;;;;;;;8.47;5.77;;;;;;;;;;5003466;28;20419;-48
2023/06/09 13:53:54;;;;;;;6.43;5.83;;;;;;;;;;5005406;28;20435;-49
2023/06/09 13:56:20;;;;;;;7.50;6.53;;;;;;;;;;5000821;28;20419;-48
2023/06/09 13:58:46;;;;;;;6.63;6.07;;;;;;;;;;5004369;28;20524;-47
2023/06/09 14:01:12;;;;;;;7.10;6.40;;;;;;;;;;5004680;28;20407;-49
2023/06/09 14:03:38;;;;;;;7.50;6.80;;;;;;;;;;5001820;28;20438;-48
2023/06/09 14:06:04;;;;;;;7.37;6.73;;;;;;;;;;5001740;28;20416;-47
2023/06/09 14:08:30;;;;;;;6.93;6.33;;;;;;;;;;5001816;28;20923;-49
2023/06/09 14:10:56;;;;;;;6.10;5.60;;;;;;;;;;5002230;28;20434;-49
2023/06/09 14:13:22;;;;;;;6.47;5.90;;;;;;;;;;5001601;28;20438;-48
2023/06/09 14:15:48;;;;;;;6.70;6.10;;;;;;;;;;5008014;28;20427;-48
2023/06/09 14:18:14;;;;;;;8.80;5.93;;;;;;;;;;5002994;28;20419;-48
2023/06/09 14:20:40;;;;;;;8.00;6.97;;;;;;;;;;4999747;28;20471;-48
2023/06/09 14:23:08;;;;;;;7.83;5.80;;;;;;;;;;5002846;28;20399;-48
2023/06/09 14:25:35;;;;;;;6.60;6.10;;;;;;;;;;5001563;28;20416;-46
2023/06/09 14:28:01;;;;;;;6.43;5.63;;;;;;;;;;5001649;28;20409;-48
2023/06/09 14:30:28;;;;;;;7.13;5.30;;;;;;;;;;4996769;28;20458;-48
2023/06/09 14:32:54;;;;;;;7.13;5.60;;;;;;;;;;4992638;28;20794;-48